Time;durP1;ratioP1;P1;durP2;ratioP2;P2;SDS_P1;SDS_P2;PMS_P1;PMS_P2;Temp;Humidity;BMP_temperature;BMP_pressure;BME280_temperature;BME280_humidity;BME280_pressure;Samples;Min_cycle;Max_cycle;Signal;HPM_P1;HPM_P2
2021/05/18 00:02:35;;;;;;;11.90;8.87;;;13.40;96.40;;;;;;8319581;28;20437;-76
2021/05/18 00:06:36;;;;;;;12.07;8.07;;;13.30;96.50;;;;;;8313849;28;20450;-76
2021/05/18 00:15:06;;;;;;;7.20;5.87;;;13.30;96.60;;;;;;8329133;28;20349;-76
2021/05/18 00:19:07;;;;;;;7.27;5.43;;;13.30;96.30;;;;;;8312915;28;20431;-76
2021/05/18 00:23:10;;;;;;;8.37;5.13;;;13.20;96.30;;;;;;8307218;28;20621;-76
2021/05/18 00:27:11;;;;;;;4.57;4.17;;;13.20;96.30;;;;;;8309164;28;20196;-75
2021/05/18 00:31:12;;;;;;;4.97;3.77;;;13.10;96.00;;;;;;8295413;28;20458;-76
2021/05/18 00:35:15;;;;;;;5.40;4.93;;;13.10;96.00;;;;;;8303518;28;20235;-76
2021/05/18 00:39:17;;;;;;;4.50;4.10;;;13.10;96.00;;;;;;8306455;28;20180;-75
2021/05/18 00:43:18;;;;;;;3.17;2.97;;;13.00;96.10;;;;;;8321689;28;20972;-75
2021/05/18 00:47:22;;;;;;;3.57;3.17;;;13.00;96.10;;;;;;8324630;28;20951;-76
2021/05/18 00:51:27;;;;;;;5.73;4.30;;;13.00;96.00;;;;;;8301876;28;20439;-75
2021/05/18 00:59:29;;;;;;;5.10;4.67;;;13.00;96.30;;;;;;8327325;28;20474;-76
2021/05/18 01:03:31;;;;;;;5.50;5.00;;;12.90;96.40;;;;;;8306934;28;20447;-78
2021/05/18 01:07:32;;;;;;;7.10;4.27;;;12.90;96.50;;;;;;8308437;28;21015;-78
2021/05/18 01:11:33;;;;;;;5.97;5.20;;;12.90;96.50;;;;;;8332916;28;20433;-78
2021/05/18 01:15:34;;;;;;;11.97;5.20;;;12.80;96.40;;;;;;8325928;28;20204;-78
2021/05/18 01:19:35;;;;;;;11.20;6.40;;;12.80;96.20;;;;;;8315927;28;20472;-78
2021/05/18 01:23:36;;;;;;;5.13;4.73;;;12.70;96.10;;;;;;8331191;28;20463;-78
2021/05/18 01:27:38;;;;;;;7.10;5.90;;;12.70;96.20;;;;;;8313820;28;20222;-78
2021/05/18 01:31:41;;;;;;;14.10;6.10;;;12.60;96.30;;;;;;8318970;28;21254;-78
2021/05/18 01:35:42;;;;;;;9.40;5.33;;;12.60;96.30;;;;;;8330776;28;20971;-78
2021/05/18 01:39:55;;;;;;;10.87;5.60;;;12.60;96.30;;;;;;8320452;28;21534;-78
2021/05/18 01:43:58;;;;;;;5.90;5.10;;;12.60;96.30;;;;;;8345725;28;20468;-77
2021/05/18 01:48:09;;;;;;;10.97;5.00;;;12.60;96.20;;;;;;8318528;28;20450;-78
2021/05/18 01:52:10;;;;;;;11.03;4.90;;;12.60;96.10;;;;;;8319613;28;20497;-77
2021/05/18 02:00:14;;;;;;;15.63;4.60;;;12.50;96.00;;;;;;8318350;28;20184;-77
2021/05/18 02:04:31;;;;;;;8.10;4.70;;;12.50;95.80;;;;;;8327574;28;20216;-77
2021/05/18 02:08:32;;;;;;;7.43;5.43;;;12.40;95.80;;;;;;8326728;28;20446;-77
2021/05/18 02:12:33;;;;;;;8.83;5.17;;;12.30;95.90;;;;;;8312638;28;20450;-77
2021/05/18 02:16:37;;;;;;;6.27;5.67;;;12.30;96.10;;;;;;8308186;28;20866;-78
2021/05/18 02:20:42;;;;;;;8.83;4.97;;;12.10;96.20;;;;;;8323363;28;20489;-78
2021/05/18 02:25:03;;;;;;;14.40;5.20;;;12.10;96.40;;;;;;8312632;28;20462;-77
2021/05/18 02:29:04;;;;;;;7.70;4.90;;;12.10;96.60;;;;;;8326771;28;20513;-78
2021/05/18 02:33:05;;;;;;;13.83;6.50;;;12.10;96.80;;;;;;8313066;28;20534;-77
2021/05/18 02:37:06;;;;;;;7.53;5.57;;;12.10;96.70;;;;;;8314694;28;20540;-76
2021/05/18 02:41:06;;;;;;;10.93;5.57;;;12.20;96.80;;;;;;8316640;28;20442;-77
2021/05/18 02:45:14;;;;;;;11.30;5.57;;;12.20;96.80;;;;;;8330525;28;20222;-77
2021/05/18 02:49:15;;;;;;;6.97;5.70;;;12.30;96.80;;;;;;8311175;28;20679;-77
2021/05/18 02:53:16;;;;;;;5.80;5.17;;;12.30;96.70;;;;;;8317812;28;20447;-77
2021/05/18 02:57:37;;;;;;;7.63;6.67;;;12.40;96.60;;;;;;8322630;28;20451;-77
2021/05/18 03:01:39;;;;;;;10.70;4.70;;;12.40;96.40;;;;;;8320495;28;20184;-77
2021/05/18 03:05:42;;;;;;;10.43;5.07;;;12.40;96.10;;;;;;8307092;28;20582;-77
2021/05/18 03:09:43;;;;;;;11.20;5.93;;;12.30;96.00;;;;;;8329052;28;20450;-77
2021/05/18 03:13:46;;;;;;;9.17;5.57;;;12.10;96.10;;;;;;8310617;28;20478;-79
2021/05/18 03:17:46;;;;;;;8.13;6.40;;;12.10;96.40;;;;;;8321917;28;20195;-76
2021/05/18 03:21:47;;;;;;;13.70;5.90;;;12.00;96.60;;;;;;8314873;28;20442;-76
2021/05/18 03:25:48;;;;;;;7.83;6.03;;;12.00;97.00;;;;;;8322062;28;20238;-77
2021/05/18 03:29:50;;;;;;;7.30;5.60;;;12.10;97.00;;;;;;8316222;28;20202;-77
2021/05/18 03:38:36;;;;;;;8.07;5.20;;;12.20;96.90;;;;;;8318090;28;20439;-77
2021/05/18 03:42:44;;;;;;;9.33;4.30;;;12.20;96.70;;;;;;8307125;28;21105;-77
2021/05/18 05:07:11;;;;;;;6.57;4.33;;;12.70;96.50;;;;;;8323413;28;20527;-77
2021/05/18 05:15:12;;;;;;;9.53;3.93;;;12.70;96.80;;;;;;8321953;28;20466;-76
2021/05/18 05:19:14;;;;;;;14.67;4.60;;;12.70;96.60;;;;;;8302010;28;20596;-77
2021/05/18 05:23:16;;;;;;;8.00;4.90;;;12.70;96.60;;;;;;8329861;28;20436;-77
2021/05/18 05:27:16;;;;;;;9.83;6.30;;;12.70;96.80;;;;;;8313710;28;20459;-77
2021/05/18 05:31:17;;;;;;;12.40;4.90;;;12.70;96.90;;;;;;8329821;28;20538;-80
2021/05/18 05:35:17;;;;;;;19.63;5.37;;;12.70;96.70;;;;;;8332310;28;20204;-78
2021/05/18 05:39:24;;;;;;;3.83;3.37;;;12.70;96.90;;;;;;8326988;28;20180;-78
2021/05/18 05:43:25;;;;;;;9.17;4.50;;;12.70;96.80;;;;;;8329862;28;20173;-77
2021/05/18 05:47:26;;;;;;;6.87;3.93;;;12.70;96.80;;;;;;8321198;28;20454;-78
2021/05/18 05:51:27;;;;;;;4.20;2.90;;;12.70;97.00;;;;;;8333338;28;20180;-78
2021/05/18 05:55:28;;;;;;;5.37;3.80;;;12.80;97.10;;;;;;8341640;28;20200;-77
2021/05/18 05:59:29;;;;;;;5.63;3.47;;;12.90;96.90;;;;;;8316619;28;20439;-79
2021/05/18 06:03:30;;;;;;;3.07;2.77;;;13.10;96.80;;;;;;8317374;28;20180;-77
2021/05/18 06:07:31;;;;;;;3.40;2.20;;;13.30;96.50;;;;;;8312184;28;20215;-77
2021/05/18 06:11:50;;;;;;;2.93;2.03;;;13.50;96.30;;;;;;8342706;28;20439;-79
2021/05/18 06:50:28;;;;;;;3.20;1.80;;;14.40;93.90;;;;;;8340555;28;20467;-78
2021/05/18 06:54:29;;;;;;;1.83;1.73;;;14.30;93.70;;;;;;8326140;28;20471;-79
2021/05/18 07:00:06;;;;;;;2.23;1.67;;;14.40;93.90;;;;;;8335560;28;20459;-78
2021/05/18 07:02:52;;;;;;;1.27;1.17;;;14.60;93.90;;;;;;8337319;28;20198;-78
2021/05/18 07:07:07;;;;;;;2.00;1.80;;;14.80;93.10;;;;;;8327617;28;20489;-78
2021/05/18 07:11:08;;;;;;;2.20;2.03;;;14.80;92.90;;;;;;8328449;28;20459;-77
2021/05/18 07:15:38;;;;;;;4.40;2.20;;;14.90;92.90;;;;;;8326511;28;20519;-80
2021/05/18 07:19:45;;;;;;;2.53;1.80;;;15.10;92.70;;;;;;8343419;28;20198;-80
2021/05/18 07:23:46;;;;;;;1.60;1.50;;;15.30;92.10;;;;;;8302293;28;20483;-79
2021/05/18 07:27:47;;;;;;;2.20;2.10;;;15.60;91.80;;;;;;8317900;28;20462;-78
2021/05/18 07:31:56;;;;;;;1.53;1.43;;;15.80;91.80;;;;;;8344612;28;20199;-80
2021/05/18 07:36:00;;;;;;;1.53;1.43;;;15.90;91.20;;;;;;8326053;28;20470;-78
2021/05/18 07:40:04;;;;;;;1.70;1.60;;;16.10;91.20;;;;;;8316562;28;20497;-78
2021/05/18 07:44:05;;;;;;;1.20;1.10;;;16.40;91.00;;;;;;8319511;28;20454;-77
2021/05/18 08:09:19;;;;;;;2.30;2.13;;;17.30;86.90;;;;;;8332398;28;20451;-79
2021/05/18 08:13:23;;;;;;;2.17;1.90;;;17.50;86.10;;;;;;8316431;28;20443;-78
2021/05/18 08:17:28;;;;;;;2.27;1.73;;;17.90;84.70;;;;;;8317765;28;21119;-79
2021/05/18 10:36:15;;;;;;;3.93;2.07;;;14.80;92.90;;;;;;8179406;29;20559;-79
2021/05/18 10:40:29;;;;;;;2.50;2.30;;;15.00;92.50;;;;;;8175030;29;20452;-78
2021/05/18 10:44:54;;;;;;;4.80;2.50;;;15.10;92.50;;;;;;8196684;28;20434;-78
2021/05/18 10:49:13;;;;;;;2.00;1.87;;;15.00;92.40;;;;;;8319541;28;20434;-79
2021/05/18 10:53:24;;;;;;;5.47;2.53;;;14.90;93.20;;;;;;8325366;28;20767;-77
2021/05/18 10:57:33;;;;;;;3.93;2.10;;;14.90;93.60;;;;;;8330722;28;20465;-80
2021/05/18 11:01:36;;;;;;;1.60;1.50;;;15.10;93.90;;;;;;8327237;28;20436;-78
2021/05/18 11:05:37;;;;;;;1.80;1.70;;;15.40;93.40;;;;;;8329314;28;20431;-79
2021/05/18 11:09:39;;;;;;;1.97;1.20;;;15.60;93.00;;;;;;8330178;28;20446;-80
2021/05/18 11:13:39;;;;;;;1.63;1.00;;;15.90;92.50;;;;;;8324412;28;20514;-78
2021/05/18 11:17:46;;;;;;;2.10;1.17;;;16.30;91.50;;;;;;8325138;28;21070;-79
2021/05/18 11:21:59;;;;;;;1.50;1.40;;;16.80;91.30;;;;;;8328240;28;20204;-77
2021/05/18 11:26:12;;;;;;;1.60;1.50;;;17.20;90.50;;;;;;8321566;28;20459;-78
2021/05/18 11:30:26;;;;;;;1.40;1.30;;;17.30;90.30;;;;;;8316674;28;20462;-79
2021/05/18 11:34:29;;;;;;;0.90;0.90;;;17.30;90.40;;;;;;8337137;28;20456;-78
2021/05/18 11:38:31;;;;;;;1.57;1.47;;;17.30;90.80;;;;;;8325579;28;20471;-77
2021/05/18 11:42:34;;;;;;;1.73;1.63;;;17.40;88.10;;;;;;8335669;28;20440;-77
2021/05/18 11:46:45;;;;;;;1.70;1.60;;;17.80;86.40;;;;;;8336164;28;20438;-78
2021/05/18 11:51:10;;;;;;;1.70;1.60;;;18.60;87.10;;;;;;8335652;28;21102;-77
2021/05/18 11:55:21;;;;;;;1.70;1.60;;;19.80;83.90;;;;;;8331170;28;20876;-78
2021/05/18 11:59:23;;;;;;;2.53;1.27;;;20.90;82.00;;;;;;8329183;28;20467;-77
2021/05/18 12:03:24;;;;;;;1.50;1.40;;;21.60;75.30;;;;;;8308945;28;20481;-77
2021/05/18 12:07:24;;;;;;;2.40;1.90;;;21.80;74.40;;;;;;8312625;28;20417;-76
2021/05/18 12:11:25;;;;;;;1.80;1.70;;;22.00;70.10;;;;;;8304103;28;20249;-77
2021/05/18 12:15:26;;;;;;;2.10;1.80;;;22.30;70.40;;;;;;8306353;28;20211;-76
2021/05/18 12:19:34;;;;;;;3.23;2.37;;;22.40;68.90;;;;;;8318995;28;20246;-76
2021/05/18 12:23:35;;;;;;;3.30;2.37;;;22.60;68.80;;;;;;8313211;28;20442;-76
2021/05/18 12:27:46;;;;;;;5.50;2.90;;;22.80;67.10;;;;;;8306289;28;20462;-78
2021/05/18 12:31:46;;;;;;;2.30;2.10;;;22.50;65.00;;;;;;8324013;28;20759;-75
2021/05/18 12:35:47;;;;;;;4.33;2.87;;;22.00;65.30;;;;;;8323937;28;20975;-75
2021/05/18 12:39:48;;;;;;;2.53;2.33;;;21.50;65.90;;;;;;8306494;28;20546;-77
2021/05/18 12:43:51;;;;;;;2.33;2.13;;;21.30;65.70;;;;;;8314176;28;20184;-76
2021/05/18 12:48:01;;;;;;;3.37;1.80;;;21.30;66.10;;;;;;8299210;28;20176;-75
2021/05/18 12:52:13;;;;;;;4.50;2.90;;;21.80;65.60;;;;;;8323854;28;20405;-78
2021/05/18 12:56:31;;;;;;;4.00;2.30;;;22.50;62.40;;;;;;8310964;28;20445;-76
2021/05/18 13:00:36;;;;;;;4.23;3.77;;;22.80;60.80;;;;;;8303156;28;20949;-77
2021/05/18 13:04:38;;;;;;;2.80;2.60;;;23.20;61.90;;;;;;8318966;28;20418;-77
2021/05/18 13:08:40;;;;;;;2.50;2.13;;;23.60;60.30;;;;;;8311889;28;20496;-76
2021/05/18 13:12:40;;;;;;;1.80;1.70;;;24.00;59.80;;;;;;8331328;28;20961;-78
2021/05/18 13:16:43;;;;;;;2.50;2.30;;;24.30;58.00;;;;;;8327818;28;20973;-75
2021/05/18 13:20:53;;;;;;;3.57;2.47;;;24.00;57.40;;;;;;8316430;28;20190;-77
2021/05/18 13:29:17;;;;;;;6.50;3.73;;;23.90;58.10;;;;;;8329374;28;20453;-77
2021/05/18 13:33:18;;;;;;;2.43;2.30;;;24.30;55.90;;;;;;8310867;28;20421;-77
2021/05/18 13:37:18;;;;;;;2.80;2.60;;;24.60;53.20;;;;;;8322322;28;20597;-77
2021/05/18 13:41:19;;;;;;;4.10;3.90;;;24.80;50.70;;;;;;8332829;28;21422;-77
2021/05/18 13:45:27;;;;;;;3.53;3.23;;;24.90;50.40;;;;;;8309417;28;20191;-78
2021/05/18 13:49:28;;;;;;;4.80;3.87;;;24.30;50.50;;;;;;8321926;28;20188;-77
2021/05/18 13:53:28;;;;;;;3.83;2.30;;;23.40;51.30;;;;;;8310772;28;20437;-75
2021/05/18 13:57:29;;;;;;;3.23;3.03;;;22.50;54.20;;;;;;8325240;28;20200;-76
2021/05/18 14:01:30;;;;;;;4.33;3.43;;;22.10;56.30;;;;;;8314834;28;20203;-73
2021/05/18 14:05:30;;;;;;;4.87;1.80;;;22.30;56.60;;;;;;8315690;28;20194;-75
2021/05/18 14:09:31;;;;;;;2.53;2.43;;;22.30;55.00;;;;;;8313069;28;20191;-76
2021/05/18 14:13:34;;;;;;;2.47;2.23;;;22.50;54.00;;;;;;8321967;28;20187;-74
2021/05/18 14:17:37;;;;;;;2.90;2.70;;;22.80;51.40;;;;;;8314352;28;20703;-76
2021/05/18 14:21:40;;;;;;;3.50;3.20;;;23.10;50.90;;;;;;8323453;28;20416;-76
2021/05/18 14:25:41;;;;;;;3.30;3.00;;;23.40;49.60;;;;;;8319783;28;20488;-76
2021/05/18 14:29:41;;;;;;;3.50;3.27;;;23.70;49.80;;;;;;8313632;28;20465;-76
2021/05/18 14:33:43;;;;;;;3.60;3.30;;;23.80;46.60;;;;;;8303188;28;20535;-76
2021/05/18 14:37:50;;;;;;;3.93;3.13;;;23.60;48.30;;;;;;8331937;28;20236;-74
2021/05/18 14:54:55;;;;;;;4.07;2.73;;;23.30;48.10;;;;;;8337672;28;20429;-77
2021/05/18 14:58:56;;;;;;;2.77;2.50;;;23.30;48.90;;;;;;8303795;28;20442;-77
2021/05/18 15:02:57;;;;;;;2.30;2.20;;;23.50;48.30;;;;;;8313603;28;20434;-78
2021/05/18 15:06:58;;;;;;;2.77;2.40;;;23.70;49.60;;;;;;8311586;28;20246;-78
2021/05/18 15:11:02;;;;;;;3.23;2.23;;;24.00;48.30;;;;;;8307371;28;21105;-77
2021/05/18 15:15:05;;;;;;;4.73;2.67;;;24.00;47.30;;;;;;8331538;28;20453;-77
2021/05/18 15:19:08;;;;;;;2.83;2.63;;;23.50;51.00;;;;;;8301555;28;20416;-77
2021/05/18 15:23:09;;;;;;;3.77;3.47;;;23.50;48.90;;;;;;8307339;28;20480;-78
2021/05/18 15:27:10;;;;;;;5.43;2.57;;;23.40;50.90;;;;;;8321340;28;20468;-77
2021/05/18 15:31:11;;;;;;;2.70;2.37;;;23.20;50.70;;;;;;8312228;28;20291;-74
2021/05/18 15:35:11;;;;;;;7.57;6.87;;;22.80;49.10;;;;;;8302410;28;20437;-76
2021/05/18 15:39:12;;;;;;;19.90;8.40;;;21.90;54.10;;;;;;8309204;28;20579;-74
2021/05/18 15:43:13;;;;;;;9.07;6.37;;;20.50;56.90;;;;;;8322837;28;20169;-76
2021/05/18 15:47:14;;;;;;;5.93;5.30;;;19.20;59.50;;;;;;8308879;28;20477;-77
2021/05/18 15:51:15;;;;;;;4.53;4.23;;;17.90;60.30;;;;;;8311939;28;20692;-75
2021/05/18 15:55:16;;;;;;;4.83;4.50;;;16.90;63.60;;;;;;8303723;28;21163;-75
2021/05/18 15:59:17;;;;;;;9.37;5.30;;;16.20;66.80;;;;;;8321938;28;20639;-75
2021/05/18 16:03:18;;;;;;;6.07;5.57;;;15.40;74.60;;;;;;8311032;28;20191;-76
2021/05/18 16:07:24;;;;;;;6.00;5.50;;;14.80;81.90;;;;;;8321677;28;20474;-75
2021/05/18 16:11:25;;;;;;;6.13;5.07;;;14.60;86.00;;;;;;8305974;28;20441;-75
2021/05/18 16:15:25;;;;;;;6.30;5.57;;;14.40;86.80;;;;;;8315875;28;20488;-76
2021/05/18 16:19:26;;;;;;;7.27;5.07;;;14.20;88.50;;;;;;8305980;28;20181;-76
2021/05/18 16:23:28;;;;;;;6.33;5.77;;;14.00;90.30;;;;;;8293737;28;20708;-75
2021/05/18 16:27:28;;;;;;;7.87;6.20;;;14.00;90.40;;;;;;8300890;28;20178;-76
2021/05/18 16:31:33;;;;;;;9.83;6.43;;;14.10;90.80;;;;;;8299435;28;20456;-76
2021/05/18 16:35:34;;;;;;;8.83;7.33;;;14.00;91.80;;;;;;8298934;28;20201;-76
2021/05/18 16:39:34;;;;;;;7.97;7.20;;;13.90;92.00;;;;;;8293276;28;20486;-75
2021/05/18 16:43:35;;;;;;;9.03;6.67;;;13.70;92.70;;;;;;8309905;28;20191;-75
2021/05/18 16:47:36;;;;;;;13.27;8.53;;;13.70;93.40;;;;;;8304572;28;20190;-76
2021/05/18 16:51:39;;;;;;;9.90;8.77;;;13.70;93.70;;;;;;8303058;28;20444;-76
2021/05/18 16:55:42;;;;;;;8.33;7.40;;;13.70;94.00;;;;;;8307460;28;20471;-76
2021/05/18 16:59:43;;;;;;;11.10;8.93;;;13.70;94.40;;;;;;8312290;28;20567;-76
2021/05/18 17:03:46;;;;;;;10.80;8.23;;;13.80;94.40;;;;;;8295185;28;20826;-76
2021/05/18 17:07:47;;;;;;;9.07;8.27;;;13.70;94.50;;;;;;8298507;28;20541;-76
2021/05/18 17:11:48;;;;;;;10.30;8.00;;;13.70;94.40;;;;;;8293060;28;20494;-75
2021/05/18 17:15:52;;;;;;;11.30;7.60;;;13.70;95.10;;;;;;8316686;28;20664;-75
2021/05/18 17:19:53;;;;;;;20.13;9.47;;;13.70;94.90;;;;;;8303438;28;20526;-76
2021/05/18 17:23:53;;;;;;;12.30;10.67;;;13.70;95.10;;;;;;8297243;28;20471;-75
2021/05/18 17:27:54;;;;;;;9.93;8.97;;;13.70;95.60;;;;;;8292988;28;20195;-76
2021/05/18 17:31:57;;;;;;;10.17;9.27;;;13.80;95.80;;;;;;8292269;28;20285;-76
2021/05/18 17:35:58;;;;;;;12.03;9.47;;;13.80;95.40;;;;;;8311602;28;20575;-76
2021/05/18 17:39:59;;;;;;;19.80;14.70;;;13.70;95.80;;;;;;8299426;28;22359;-75
2021/05/18 17:43:59;;;;;;;17.10;13.73;;;13.70;95.90;;;;;;8305594;28;20266;-75
2021/05/18 17:48:03;;;;;;;22.27;15.00;;;13.70;95.80;;;;;;8310525;28;20436;-76
2021/05/18 17:52:07;;;;;;;16.30;13.50;;;13.80;95.50;;;;;;8303415;28;20175;-76
2021/05/18 17:56:08;;;;;;;27.50;17.73;;;13.80;95.40;;;;;;8297810;28;20635;-76
2021/05/18 18:00:10;;;;;;;20.67;15.20;;;13.90;95.00;;;;;;8294825;28;20432;-77
2021/05/18 18:04:11;;;;;;;19.70;14.60;;;14.10;95.40;;;;;;8300496;28;20253;-76
2021/05/18 18:08:12;;;;;;;16.70;14.97;;;14.20;95.40;;;;;;8295536;28;20501;-75
2021/05/18 18:12:12;;;;;;;18.43;15.23;;;14.30;95.60;;;;;;8299484;28;20186;-76
2021/05/18 18:16:14;;;;;;;18.70;13.83;;;14.30;95.50;;;;;;8294720;28;20218;-75
2021/05/18 18:20:15;;;;;;;21.43;14.60;;;14.50;95.20;;;;;;8317684;28;20646;-75
2021/05/18 18:24:16;;;;;;;22.30;16.57;;;14.60;95.30;;;;;;8313181;28;20761;-75
2021/05/18 18:28:19;;;;;;;19.73;16.00;;;14.60;95.10;;;;;;8311720;28;20897;-76
2021/05/18 18:32:19;;;;;;;19.70;15.30;;;14.60;95.00;;;;;;8301699;28;20197;-76
2021/05/18 18:36:20;;;;;;;21.50;16.27;;;14.60;94.30;;;;;;8304408;28;20488;-76
2021/05/18 18:40:22;;;;;;;19.43;15.17;;;14.50;94.00;;;;;;8297486;28;21524;-76
2021/05/18 18:44:23;;;;;;;17.40;15.50;;;14.50;94.30;;;;;;8309591;28;20192;-75
2021/05/18 18:48:25;;;;;;;28.60;15.80;;;14.40;94.10;;;;;;8301671;28;20536;-76
2021/05/18 18:56:45;;;;;;;23.00;18.10;;;14.30;94.80;;;;;;8324394;28;20502;-76
2021/05/18 19:00:46;;;;;;;18.20;16.33;;;14.20;94.80;;;;;;8304560;28;20441;-75
2021/05/18 19:04:48;;;;;;;22.57;19.37;;;14.10;94.90;;;;;;8315884;28;20484;-74
2021/05/18 19:13:09;;;;;;;24.23;19.70;;;14.10;95.50;;;;;;8309152;28;20505;-76
2021/05/18 19:17:10;;;;;;;19.40;16.90;;;14.10;95.70;;;;;;8297812;28;20495;-76
2021/05/18 19:21:11;;;;;;;18.40;16.50;;;14.10;95.50;;;;;;8303968;28;20460;-75
2021/05/18 19:25:12;;;;;;;17.00;14.53;;;14.00;95.40;;;;;;8296560;28;20558;-76
2021/05/18 19:29:13;;;;;;;15.97;14.47;;;14.00;95.00;;;;;;8319901;28;20184;-76
2021/05/18 19:33:16;;;;;;;16.50;13.67;;;13.90;94.80;;;;;;8313499;28;20665;-76
2021/05/18 19:41:36;;;;;;;22.37;17.70;;;13.60;95.30;;;;;;8307772;28;20852;-75
2021/05/18 19:49:58;;;;;;;13.43;11.70;;;13.60;95.40;;;;;;8294932;28;20834;-76
2021/05/18 19:53:59;;;;;;;14.63;12.93;;;13.50;95.40;;;;;;8298223;28;20816;-76
2021/05/18 19:58:08;;;;;;;15.77;14.10;;;13.40;95.30;;;;;;8299536;28;20938;-75
2021/05/18 20:19:33;;;;;;;23.60;17.47;;;13.00;96.20;;;;;;8317288;28;20457;-76
2021/05/18 20:23:34;;;;;;;22.90;20.00;;;12.80;96.40;;;;;;8302031;28;20462;-76
2021/05/18 20:27:38;;;;;;;26.03;21.13;;;12.70;96.50;;;;;;8314925;28;20455;-76
2021/05/18 20:31:41;;;;;;;24.53;20.97;;;12.60;96.60;;;;;;8308729;28;20467;-76
2021/05/18 20:35:47;;;;;;;32.53;21.07;;;12.60;96.80;;;;;;8291398;28;20498;-74
2021/05/18 20:39:53;;;;;;;23.57;20.30;;;12.50;96.80;;;;;;8293929;28;20458;-77
2021/05/18 20:43:55;;;;;;;31.50;22.03;;;12.40;96.80;;;;;;8319356;28;20470;-75
2021/05/18 20:47:56;;;;;;;29.13;22.23;;;12.30;96.90;;;;;;8294934;28;20470;-75
2021/05/18 20:52:00;;;;;;;29.00;23.30;;;12.20;96.90;;;;;;8282200;28;20443;-75
2021/05/18 20:56:01;;;;;;;27.47;22.73;;;12.20;96.80;;;;;;8295005;28;20298;-76
2021/05/18 21:00:02;;;;;;;28.70;21.93;;;12.10;96.90;;;;;;8299439;28;20473;-75
2021/05/18 21:04:03;;;;;;;36.07;24.43;;;12.10;97.00;;;;;;8299762;28;20223;-75
2021/05/18 21:08:29;;;;;;;25.47;20.47;;;12.00;96.90;;;;;;8301073;28;20495;-75
2021/05/18 21:16:31;;;;;;;21.20;18.80;;;11.90;97.00;;;;;;8318328;28;20521;-75
2021/05/18 21:20:31;;;;;;;20.83;18.57;;;11.80;96.70;;;;;;8305495;28;20255;-75
2021/05/18 21:24:32;;;;;;;20.30;18.00;;;11.70;96.60;;;;;;8304335;28;20277;-76
2021/05/18 21:28:34;;;;;;;22.57;17.37;;;11.70;96.70;;;;;;8300052;28;20184;-75
2021/05/18 21:32:34;;;;;;;23.70;17.30;;;11.60;96.70;;;;;;8317510;28;20233;-76
2021/05/18 21:36:35;;;;;;;22.90;19.37;;;11.50;96.80;;;;;;8296105;28;20466;-76
2021/05/18 21:40:41;;;;;;;20.70;15.67;;;11.40;96.90;;;;;;8305821;28;20211;-75
2021/05/18 21:44:42;;;;;;;17.47;14.80;;;11.40;97.00;;;;;;8296471;28;20620;-75
2021/05/18 21:48:42;;;;;;;17.17;13.57;;;11.40;97.30;;;;;;8529497;22;21008;-76
2021/05/18 21:52:43;;;;;;;15.70;13.87;;;11.50;97.70;;;;;;8355466;28;20521;-75
2021/05/18 21:56:44;;;;;;;18.27;12.40;;;11.60;97.40;;;;;;8360065;28;20574;-75
2021/05/18 22:00:46;;;;;;;13.07;11.77;;;11.70;97.30;;;;;;8339925;28;20180;-75
2021/05/18 22:04:47;;;;;;;17.40;10.77;;;11.80;97.20;;;;;;8341768;28;20245;-75
2021/05/18 22:09:13;;;;;;;13.20;10.83;;;11.80;97.00;;;;;;8340910;28;20445;-75
2021/05/18 22:13:21;;;;;;;11.90;10.70;;;11.90;96.80;;;;;;8335425;28;20194;-76
2021/05/18 22:26:20;;;;;;;10.83;9.70;;;11.90;96.50;;;;;;8325987;28;20449;-76
2021/05/18 22:30:23;;;;;;;12.73;10.47;;;11.90;96.30;;;;;;8349999;28;20426;-76
2021/05/18 22:34:25;;;;;;;11.73;9.57;;;11.90;96.20;;;;;;8359021;28;20200;-75
2021/05/18 22:38:26;;;;;;;10.10;9.10;;;11.90;96.20;;;;;;8346681;28;20948;-76
2021/05/18 22:42:27;;;;;;;9.83;8.93;;;11.80;96.10;;;;;;8352475;28;20984;-76
2021/05/18 22:46:27;;;;;;;11.30;9.53;;;11.80;96.10;;;;;;8343549;28;20182;-76
2021/05/18 22:50:28;;;;;;;9.67;8.20;;;11.80;96.00;;;;;;8327997;28;20545;-76
2021/05/18 22:54:30;;;;;;;10.27;7.93;;;11.70;95.90;;;;;;8318361;28;20555;-74
2021/05/18 22:58:30;;;;;;;11.17;9.30;;;11.70;95.90;;;;;;8321427;28;20180;-76
2021/05/18 23:02:31;;;;;;;10.80;9.73;;;11.70;95.90;;;;;;8331857;28;20434;-74
2021/05/18 23:06:32;;;;;;;10.07;8.57;;;11.60;95.90;;;;;;8327275;28;20218;-76
2021/05/18 23:10:33;;;;;;;10.43;9.37;;;11.60;96.00;;;;;;8337310;28;20449;-76
2021/05/18 23:14:38;;;;;;;10.30;8.50;;;11.50;95.90;;;;;;8345045;28;20243;-76
2021/05/18 23:18:40;;;;;;;9.63;8.13;;;11.50;96.00;;;;;;8339140;28;20422;-75
2021/05/18 23:22:41;;;;;;;11.00;9.60;;;11.50;96.00;;;;;;8338047;28;20435;-75
2021/05/18 23:26:42;;;;;;;9.73;8.67;;;11.50;96.00;;;;;;8334584;28;20456;-76
2021/05/18 23:30:43;;;;;;;8.50;7.60;;;11.40;96.00;;;;;;8320209;28;20446;-77
2021/05/18 23:34:45;;;;;;;9.93;8.70;;;11.40;96.00;;;;;;8321568;28;20555;-76
2021/05/18 23:38:51;;;;;;;9.27;8.27;;;11.40;96.00;;;;;;8348348;28;20289;-77
2021/05/18 23:42:52;;;;;;;16.87;10.80;;;11.40;96.00;;;;;;8315875;28;20476;-75
2021/05/18 23:46:53;;;;;;;10.10;9.13;;;11.40;95.90;;;;;;8333878;28;20473;-76
2021/05/18 23:50:53;;;;;;;11.57;9.37;;;11.50;95.90;;;;;;8323069;28;20466;-76
2021/05/18 23:54:54;;;;;;;16.13;10.27;;;11.50;95.90;;;;;;8330123;28;20456;-74
2021/05/18 23:58:55;;;;;;;14.60;11.70;;;11.50;95.90;;;;;;8319989;28;20180;-75
